sensor_id;sensor_type;location;lat;lon;timestamp;temperature;humidity
78381;SHT31;67663;51.980;5.666;2023-02-07T19:18:39;5.3;54.5
78381;SHT31;67663;51.980;5.666;2023-02-07T19:21:11;5.2;54.7
78381;SHT31;67663;51.980;5.666;2023-02-07T19:23:41;5.1;55.0
78381;SHT31;67663;51.980;5.666;2023-02-07T19:26:11;5.0;55.5
78381;SHT31;67663;51.980;5.666;2023-02-07T19:28:40;4.9;55.6
78381;SHT31;67663;51.980;5.666;2023-02-07T19:31:13;4.8;55.6
78381;SHT31;67663;51.980;5.666;2023-02-07T19:33:44;4.8;55.9
78381;SHT31;67663;51.980;5.666;2023-02-07T19:36:16;4.7;56.3
78381;SHT31;67663;51.980;5.666;2023-02-07T19:38:46;4.6;56.2
78381;SHT31;67663;51.980;5.666;2023-02-07T19:41:16;4.6;56.7
78381;SHT31;67663;51.980;5.666;2023-02-07T19:43:46;4.5;56.8
78381;SHT31;67663;51.980;5.666;2023-02-07T19:46:17;4.5;56.6
78381;SHT31;67663;51.980;5.666;2023-02-07T19:48:48;4.4;56.9
78381;SHT31;67663;51.980;5.666;2023-02-07T19:51:21;4.4;57.1
78381;SHT31;67663;51.980;5.666;2023-02-07T19:53:54;4.3;57.1
78381;SHT31;67663;51.980;5.666;2023-02-07T19:56:25;4.3;57.2
78381;SHT31;67663;51.980;5.666;2023-02-07T19:58:55;4.2;57.3
78381;SHT31;67663;51.980;5.666;2023-02-07T20:01:25;4.2;57.9
78381;SHT31;67663;51.980;5.666;2023-02-07T20:03:55;4.1;57.6
78381;SHT31;67663;51.980;5.666;2023-02-07T20:06:28;4.1;57.7
78381;SHT31;67663;51.980;5.666;2023-02-07T20:09:02;4.1;57.7
78381;SHT31;67663;51.980;5.666;2023-02-07T20:11:33;4.1;58.0
78381;SHT31;67663;51.980;5.666;2023-02-07T20:14:03;4.0;57.9
78381;SHT31;67663;51.980;5.666;2023-02-07T20:16:35;4.0;57.8
78381;SHT31;67663;51.980;5.666;2023-02-07T20:19:06;4.0;58.5
78381;SHT31;67663;51.980;5.666;2023-02-07T20:21:36;4.0;58.0
78381;SHT31;67663;51.980;5.666;2023-02-07T20:24:08;3.9;58.2
78381;SHT31;67663;51.980;5.666;2023-02-07T20:26:41;3.9;58.2
78381;SHT31;67663;51.980;5.666;2023-02-07T20:29:13;3.9;58.5
78381;SHT31;67663;51.980;5.666;2023-02-07T20:31:44;3.9;58.3
78381;SHT31;67663;51.980;5.666;2023-02-07T20:34:14;3.9;58.3
78381;SHT31;67663;51.980;5.666;2023-02-07T20:36:46;3.8;58.2
78381;SHT31;67663;51.980;5.666;2023-02-07T20:39:18;3.8;58.5
78381;SHT31;67663;51.980;5.666;2023-02-07T20:41:48;3.8;58.6
78381;SHT31;67663;51.980;5.666;2023-02-07T20:44:21;3.8;58.3
78381;SHT31;67663;51.980;5.666;2023-02-07T20:46:54;3.8;58.5
78381;SHT31;67663;51.980;5.666;2023-02-07T20:49:27;3.7;58.6
78381;SHT31;67663;51.980;5.666;2023-02-07T20:51:58;3.7;58.7
78381;SHT31;67663;51.980;5.666;2023-02-07T20:54:29;3.7;59.1
78381;SHT31;67663;51.980;5.666;2023-02-07T20:56:59;3.7;58.5
78381;SHT31;67663;51.980;5.666;2023-02-07T20:59:31;3.7;58.7
78381;SHT31;67663;51.980;5.666;2023-02-07T21:02:01;3.7;58.7
78381;SHT31;67663;51.980;5.666;2023-02-07T21:04:31;3.6;58.5
78381;SHT31;67663;51.980;5.666;2023-02-07T21:07:01;3.6;58.7
78381;SHT31;67663;51.980;5.666;2023-02-07T21:09:33;3.6;58.6
78381;SHT31;67663;51.980;5.666;2023-02-07T21:12:03;3.6;58.5
78381;SHT31;67663;51.980;5.666;2023-02-07T21:14:33;3.6;58.7
78381;SHT31;67663;51.980;5.666;2023-02-07T21:17:04;3.5;58.7
78381;SHT31;67663;51.980;5.666;2023-02-07T21:19:35;3.5;58.7
78381;SHT31;67663;51.980;5.666;2023-02-07T21:22:06;3.5;58.8
78381;SHT31;67663;51.980;5.666;2023-02-07T21:24:36;3.5;58.8
78381;SHT31;67663;51.980;5.666;2023-02-07T21:27:05;3.4;59.2
78381;SHT31;67663;51.980;5.666;2023-02-07T21:29:37;3.4;59.2
78381;SHT31;67663;51.980;5.666;2023-02-07T21:32:08;3.4;59.1
78381;SHT31;67663;51.980;5.666;2023-02-07T21:34:38;3.4;59.0
78381;SHT31;67663;51.980;5.666;2023-02-07T21:37:08;3.4;59.3
78381;SHT31;67663;51.980;5.666;2023-02-07T21:39:37;3.4;59.2
78381;SHT31;67663;51.980;5.666;2023-02-07T21:42:07;3.4;59.1
78381;SHT31;67663;51.980;5.666;2023-02-07T21:44:38;3.4;59.2
78381;SHT31;67663;51.980;5.666;2023-02-07T21:47:07;3.4;59.5
78381;SHT31;67663;51.980;5.666;2023-02-07T21:49:37;3.3;59.2
78381;SHT31;67663;51.980;5.666;2023-02-07T21:52:06;3.3;58.8
78381;SHT31;67663;51.980;5.666;2023-02-07T21:54:37;3.3;59.2
78381;SHT31;67663;51.980;5.666;2023-02-07T21:57:06;3.3;59.2
78381;SHT31;67663;51.980;5.666;2023-02-07T21:59:36;3.3;59.3
78381;SHT31;67663;51.980;5.666;2023-02-07T22:02:08;3.3;58.9
78381;SHT31;67663;51.980;5.666;2023-02-07T22:04:39;3.3;59.0
78381;SHT31;67663;51.980;5.666;2023-02-07T22:07:10;3.3;59.3
78381;SHT31;67663;51.980;5.666;2023-02-07T22:09:40;3.3;58.8
78381;SHT31;67663;51.980;5.666;2023-02-07T22:12:10;3.3;59.0
78381;SHT31;67663;51.980;5.666;2023-02-07T22:14:39;3.3;59.3
78381;SHT31;67663;51.980;5.666;2023-02-07T22:17:09;3.3;58.8
78381;SHT31;67663;51.980;5.666;2023-02-07T22:19:38;3.3;58.8
78381;SHT31;67663;51.980;5.666;2023-02-07T22:22:08;3.3;58.9
78381;SHT31;67663;51.980;5.666;2023-02-07T22:24:38;3.3;58.6
78381;SHT31;67663;51.980;5.666;2023-02-07T22:27:07;3.2;58.7
78381;SHT31;67663;51.980;5.666;2023-02-07T22:29:37;3.2;58.7
78381;SHT31;67663;51.980;5.666;2023-02-07T22:32:08;3.2;58.8
78381;SHT31;67663;51.980;5.666;2023-02-07T22:34:38;3.1;58.8
78381;SHT31;67663;51.980;5.666;2023-02-07T22:37:08;3.1;58.8
78381;SHT31;67663;51.980;5.666;2023-02-07T22:39:38;3.0;59.0
78381;SHT31;67663;51.980;5.666;2023-02-07T22:42:07;3.0;59.0
78381;SHT31;67663;51.980;5.666;2023-02-07T22:44:37;3.0;59.2
78381;SHT31;67663;51.980;5.666;2023-02-07T22:47:07;3.0;59.1
78381;SHT31;67663;51.980;5.666;2023-02-07T22:49:36;3.0;59.8
78381;SHT31;67663;51.980;5.666;2023-02-07T22:52:07;3.0;59.2
78381;SHT31;67663;51.980;5.666;2023-02-07T22:54:36;3.0;59.4
78381;SHT31;67663;51.980;5.666;2023-02-07T22:57:06;2.9;59.3
78381;SHT31;67663;51.980;5.666;2023-02-07T22:59:39;2.9;59.2
78381;SHT31;67663;51.980;5.666;2023-02-07T23:02:09;2.9;59.5
78381;SHT31;67663;51.980;5.666;2023-02-07T23:04:39;2.9;59.3
78381;SHT31;67663;51.980;5.666;2023-02-07T23:07:09;2.9;59.0
78381;SHT31;67663;51.980;5.666;2023-02-07T23:09:38;2.9;59.9
78381;SHT31;67663;51.980;5.666;2023-02-07T23:12:09;2.9;59.1
78381;SHT31;67663;51.980;5.666;2023-02-07T23:14:38;2.9;59.1
78381;SHT31;67663;51.980;5.666;2023-02-07T23:17:08;2.9;59.2
78381;SHT31;67663;51.980;5.666;2023-02-07T23:19:37;2.9;59.2
78381;SHT31;67663;51.980;5.666;2023-02-07T23:22:09;2.8;59.8
78381;SHT31;67663;51.980;5.666;2023-02-07T23:24:40;2.8;59.3
78381;SHT31;67663;51.980;5.666;2023-02-07T23:27:11;2.8;59.5
78381;SHT31;67663;51.980;5.666;2023-02-07T23:29:40;2.8;59.7
78381;SHT31;67663;51.980;5.666;2023-02-07T23:32:12;2.8;59.0
78381;SHT31;67663;51.980;5.666;2023-02-07T23:34:43;2.8;59.4
78381;SHT31;67663;51.980;5.666;2023-02-07T23:37:12;2.8;59.3
78381;SHT31;67663;51.980;5.666;2023-02-07T23:39:43;2.8;59.8
78381;SHT31;67663;51.980;5.666;2023-02-07T23:42:13;2.8;59.3
78381;SHT31;67663;51.980;5.666;2023-02-07T23:44:43;2.8;59.7
78381;SHT31;67663;51.980;5.666;2023-02-07T23:47:12;2.8;59.6
78381;SHT31;67663;51.980;5.666;2023-02-07T23:49:42;2.8;59.8
78381;SHT31;67663;51.980;5.666;2023-02-07T23:52:11;2.8;59.3
78381;SHT31;67663;51.980;5.666;2023-02-07T23:54:41;2.8;59.7
78381;SHT31;67663;51.980;5.666;2023-02-07T23:57:10;2.8;59.0
78381;SHT31;67663;51.980;5.666;2023-02-07T23:59:40;2.8;59.3
